Main page
METAR-TAF:

METAR-TAF

Airports :

Cherif Al Idrissi Airport

Al Hoceima, Morocco

latitude: 35-11N, longitude: 003-51W, elevation: 27 m

Current weather observation

The report was made 30 minutes ago, at 10:00 UTC
Wind 6 kt from the North/Northeast
Temperature 17°C
Humidity 59%
Pressure 1023 hPa
Visibility 10 km or more
Few clouds at a height of 3000 ft

METAR: GMTA 201000Z 02006KT 9999 FEW030 17/09 Q1023 NOSIG

Time: 10:30 (10:30 UTC)

Forecast

The report was made 5 hours and 30 minutes ago, at 05:00 UTC
Forecast valid from 20 at 06 UTC to 21 at 12 UTC
Wind 3 kt from the South/Southwest
Visibility: 8000 m
Scattered clouds at a height of 3000 ft
Becoming
from 20 at 13 UTC to 20 at 15 UTC
Wind 12 kt from the Northeast

TAF: GMTA 200500Z 2006/2112 20003KT 8000 SCT030 BECMG 2013/2015 05012KT

Weather observations and forecasts of more than 4000 airports (METAR and TAF reports).

The available stations are represented by yellow and red dots on the map.

Hover mouse over dot to see the name of the station.

Then click to see weather observations and forecasts.

To change the map : click on the green buttons with a black cross to zoom in, on the green button with a dash to zoom out, or on the green arrows for adjacent maps.


METAR-TAF: